ENAL Airport Information

Runway Information
Runway 07 Length 7592 ft width 148 ft
Elevation 34 ft Threshold 490 ft Heading 65
Runway 25 Length 7592 ft Width 148 ft
Elevation 48 ft Threshold 755 ft Heading 245
Airport Frequencies
Type ATIS Name ATIS Frequency 128.65 MHZ
Type TWR Name TWR Frequency 119.85 MHZ
Airport Navaids
Type NDB Name Vigra Frequency 355 KHZ
Type TACAN Name Vigra Frequency 112400 KHZ
Type VOR-DME Name Vigra Frequency 115800 KHZ
Airport Weather Information & NOTAM
ADDS - METARS form results

(0234 UTC 19 September 2021)
Data provider http://aviationweather.gov/metar/data/
 
METAR text: ENAL 190220Z AUTO 11003KT 090V150 9999 BKN084/// OVC140/// 12/09 Q1019
Conditions at: ENAL (ALESUND/VIGRA , NO) observed 0220 UTC 19 September 2021
Temperature: 12.0°C (54°F)
Dewpoint: 9.0°C (48°F) [RH = 82%]
Pressure (altimeter): 30.09 inches Hg (1019.0 mb)
Winds: from the ESE (110 degrees) at 3 MPH (3 knots; 1.5 m/s)
Visibility: 6 or more miles (10+ km)
Ceiling: 8400 feet AGL
Clouds: broken clouds at 8400 feet AGL
overcast cloud deck at 14000 feet AGL
Weather: no significant weather observed at this time

METAR text: ENAL 190150Z AUTO 15008KT 9999 OVC080/// 12/10 Q1019
Conditions at: ENAL (ALESUND/VIGRA , NO) observed 0150 UTC 19 September 2021
Temperature: 12.0°C (54°F)
Dewpoint: 10.0°C (50°F) [RH = 88%]
Pressure (altimeter): 30.09 inches Hg (1019.0 mb)
Winds: from the SSE (150 degrees) at 9 MPH (8 knots; 4.1 m/s)
Visibility: 6 or more miles (10+ km)
Ceiling: 8000 feet AGL
Clouds: overcast cloud deck at 8000 feet AGL
Weather: no significant weather observed at this time

Forecast for: ENAL (ALESUND/VIGRA , NO)
Text: TAF ENAL 181700Z 1818/1821 VRB05KT 9999 -RA BKN050
Forecast period: 1800 to 2100 UTC 18 September 2021
Forecast type: FROM: standard forecast or significant change
Winds: variable direction winds at 6 MPH (5 knots; 2.6 m/s)
Visibility: 6 or more miles (10+ km)
Ceiling: 5000 feet AGL
Clouds: broken clouds at 5000 feet AGL
Weather: -RA  (light rain)